»·PEaware :: N6833T KVNY-KCRQ

N6833T :: KVNY-KCRQ

FLIGHT INFORMATION

Flight Status: Arrived
Operator: Privately registered:
United States
More flights under this callsign
Pilot: Chris D. (14212)
Aircraft: CESSNA 310
(C310)
More flights by this aircraft type
Origin: KVNY Van Nuys
United States
Destination: KCRQ McClellan-Palomar
United States
More flights between these airports :: More routes between these airports
Route: +ADAMM2 ADAMM V186 ROBNN V458 OCN
File this flight plan on PilotEdge
Remarks:
Altitude:
(Current/Filed)
7,000ft
Speed:
(Current/Filed)
170kts
Departed: 05-Jan-18 08:19 PM
Arrived: 05-Jan-18 09:19 PM
Distance/Time
Traveled:
89nm/1:00
Distance/Time
To Go:
Arrived

Flight Plot

Page will automatically refresh every two minutes.

Flight plan parsing failed; only flown route is shown


Map Options




Map Legend


Flown Route
Filed Route
Departure Airport
Arrival Airport
Navaid (VOR, NDB)
Fix

Horizontal Profiles

Position Reports

Time Latitude Longitude Heading Altitude Ground
Speed
05-Jan-18 20:03 34.216863 -118.496281 8 805ft 0kts
05-Jan-18 20:04 34.216864 -118.496281 8 805ft 0kts
05-Jan-18 20:05 34.216864 -118.496281 8 805ft 0kts
05-Jan-18 20:06 34.216865 -118.496280 8 805ft 0kts
05-Jan-18 20:07 34.216865 -118.496280 8 805ft 0kts
05-Jan-18 20:08 34.216866 -118.496280 8 805ft 0kts
05-Jan-18 20:09 34.216866 -118.496280 8 805ft 0kts
05-Jan-18 20:10 34.216867 -118.496280 8 805ft 0kts
05-Jan-18 20:11 34.216867 -118.496280 8 805ft 0kts
05-Jan-18 20:12 34.216868 -118.496280 8 805ft 0kts
05-Jan-18 20:13 34.216868 -118.496280 8 805ft 0kts
05-Jan-18 20:14 34.216869 -118.496280 8 805ft 0kts
05-Jan-18 20:15 34.216869 -118.496280 8 805ft 0kts
05-Jan-18 20:16 34.216870 -118.496279 8 805ft 0kts
05-Jan-18 20:17 34.216600 -118.493251 79 805ft 7kts
05-Jan-18 20:18 34.218292 -118.492467 355 805ft 6kts
05-Jan-18 20:19 34.218407 -118.492484 352 805ft 0kts
05-Jan-18 20:20 34.218407 -118.492484 352 805ft 0kts
05-Jan-18 20:21 34.218407 -118.492484 352 805ft 0kts
05-Jan-18 20:22 34.218410 -118.492485 352 805ft 0kts
05-Jan-18 20:23 34.218944 -118.491964 125 805ft 5kts
05-Jan-18 20:24 34.218718 -118.491246 158 805ft 3kts
05-Jan-18 20:25 34.200580 -118.490030 178 1472ft 111kts
05-Jan-18 20:26 34.163624 -118.481591 138 1843ft 155kts
05-Jan-18 20:27 34.138634 -118.440284 123 2431ft 150kts
05-Jan-18 20:28 34.117935 -118.396381 97 3111ft 156kts
05-Jan-18 20:29 34.122059 -118.343268 81 3656ft 160kts
05-Jan-18 20:30 34.127999 -118.289839 81 4211ft 162kts
05-Jan-18 20:31 34.131268 -118.235645 109 4768ft 163kts
05-Jan-18 20:32 34.119808 -118.186652 103 5295ft 162kts
05-Jan-18 20:33 34.109255 -118.133834 104 5775ft 161kts
05-Jan-18 20:34 34.098896 -118.083734 107 6116ft 164kts
05-Jan-18 20:35 34.082883 -118.032234 111 6644ft 161kts
05-Jan-18 20:36 34.067364 -117.981725 111 7009ft 164kts
05-Jan-18 20:37 34.050257 -117.925755 111 7004ft 182kts
05-Jan-18 20:38 34.032986 -117.869228 111 7009ft 178kts
05-Jan-18 20:39 34.015891 -117.813409 111 7016ft 177kts
05-Jan-18 20:40 33.990019 -117.768104 183 7015ft 170kts
05-Jan-18 20:41 33.990084 -117.806002 352 7016ft 180kts
05-Jan-18 20:42 34.002267 -117.762301 125 7022ft 177kts
05-Jan-18 20:43 33.986543 -117.706214 101 7015ft 178kts
05-Jan-18 20:44 33.963328 -117.653822 121 7012ft 180kts
05-Jan-18 20:45 33.941446 -117.599393 113 7008ft 179kts
05-Jan-18 20:46 33.919911 -117.546368 139 7020ft 175kts
05-Jan-18 20:47 33.883751 -117.506694 138 7009ft 176kts
05-Jan-18 20:48 33.843804 -117.472790 146 7009ft 175kts
05-Jan-18 20:49 33.803862 -117.439177 146 7011ft 175kts
05-Jan-18 20:50 33.764063 -117.405303 146 7013ft 175kts
05-Jan-18 20:51 33.724010 -117.371197 145 7016ft 177kts
05-Jan-18 20:52 33.683859 -117.337033 146 7015ft 176kts
05-Jan-18 20:53 33.643609 -117.302836 146 7014ft 179kts
05-Jan-18 20:54 33.602820 -117.268219 146 7014ft 182kts
05-Jan-18 20:55 33.561942 -117.233553 146 7009ft 177kts
05-Jan-18 20:56 33.521338 -117.199179 146 7010ft 181kts
05-Jan-18 20:57 33.479623 -117.166375 162 7008ft 175kts
05-Jan-18 20:58 33.431850 -117.154103 171 7006ft 177kts
05-Jan-18 20:59 33.383569 -117.143735 171 7003ft 175kts
05-Jan-18 21:00 33.335829 -117.133428 171 7003ft 174kts
05-Jan-18 21:01 33.293437 -117.145423 229 6906ft 168kts
05-Jan-18 21:02 33.280650 -117.197010 271 6584ft 170kts
05-Jan-18 21:03 33.282450 -117.253732 271 6289ft 171kts
05-Jan-18 21:04 33.284223 -117.310896 271 6095ft 172kts
05-Jan-18 21:05 33.265888 -117.353310 170 5799ft 170kts
05-Jan-18 21:06 33.246641 -117.306779 114 5384ft 161kts
05-Jan-18 21:07 33.229301 -117.261330 114 5423ft 145kts
05-Jan-18 21:08 33.219941 -117.216586 72 5423ft 140kts
05-Jan-18 21:09 33.240750 -117.177919 58 5410ft 136kts
05-Jan-18 21:10 33.259804 -117.136788 60 5410ft 153kts
05-Jan-18 21:11 33.281043 -117.090801 60 5399ft 158kts
05-Jan-18 21:12 33.302499 -117.044369 60 5404ft 162kts
05-Jan-18 21:13 33.301441 -116.997016 105 5388ft 135kts
05-Jan-18 21:14 33.283869 -116.961103 135 5393ft 121kts
05-Jan-18 21:15 33.254809 -116.939854 172 5171ft 129kts
05-Jan-18 21:16 33.217579 -116.941281 197 4759ft 140kts
05-Jan-18 21:17 33.187679 -116.968594 238 4413ft 141kts
05-Jan-18 21:18 33.171644 -117.008393 259 4355ft 134kts
05-Jan-18 21:19 33.163733 -117.058650 259 3521ft 162kts
05-Jan-18 21:20 33.156480 -117.104226 260 3160ft 108kts
05-Jan-18 21:21 33.150868 -117.139501 260 2572ft 115kts
05-Jan-18 21:22 33.144720 -117.177796 259 1888ft 117kts
05-Jan-18 21:23 33.139636 -117.209447 258 1329ft 116kts
05-Jan-18 21:24 33.133367 -117.248277 258 706ft 91kts
05-Jan-18 21:25 33.128692 -117.277376 257 303ft 36kts
05-Jan-18 21:26 33.127729 -117.279707 222 303ft 0kts
05-Jan-18 21:27 33.126722 -117.281436 75 303ft 0kts
05-Jan-18 21:28 33.126723 -117.281436 75 303ft 0kts
05-Jan-18 21:29 33.126723 -117.281436 75 303ft 0kts
05-Jan-18 21:30 33.126723 -117.281436 75 303ft 0kts
05-Jan-18 21:31 33.126723 -117.281436 75 303ft 0kts
05-Jan-18 21:32 33.126723 -117.281436 75 303ft 0kts
05-Jan-18 21:33 33.126723 -117.281436 75 303ft 0kts
05-Jan-18 21:34 33.126723 -117.281436 75 303ft 0kts
05-Jan-18 21:35 33.126723 -117.281436 75 303ft 0kts

Navigation Log

Ident Type
Flight plan parsing failed, navigation log unavailable